Kaniere, New Zealand
Current Conditions -  °F | °C
As of 2:00 PM on Sunday 26 Oct 2014 (Local Time) from NZCH Reporting Station
Overcast Overcast  
Wind Chill: 68°   Ceiling: 9000
Heat Index: 68°   Visibility: 6mi
Dew Point: 43°   Wind: 15mph
Humidity: 40%   Direction: 210°SSW
Pressure: 29.71"   Gusts: NA
Location:  42.75°S, 171.01°E
Report Text: NZCH 260200Z AUTO 21013KT 170V290 9999 FEW075/// OVC090///20/06 Q1006 NOSIG
Loading
Personal Weather Stations






























Interactive Weather Map
Tropical Storm Tracking
New forecast layout! Learn more

10-Day Weather Forecast

Advertisements
Track Severe Weather on mobile